PWSweather.com
Personal Weather Stations
Station Observations
PACOSDEFERREIRA1
Pacos De Ferreira, PenamaiorPT

Pacos De FerreiraPenamaiorPT

Lat: 41.2814231, Lon: -8.398176000000035

Elevation: 900

Station Type: Oregon Scientific wmr200

Latest ConditionsUpdated 6:42:00 AM GMT Saturday, Jan 18, 2020
Currently Today's Max Today's Min Today's Average
Temperature 48.7°F9.3°C 48.7°F9.3°C 46.6°F8.1°C 47.4°F8.6°C
Dew Point 46.4°F8.0°C 46.4°F8.0°C 42.8°F6.0°C 44.7°F7.1°C
Winds 2.7 mph E4.3 kmh E 7.6 mph -12.2 kmh - - 2.4 mph 3.9 kmh
Wind Gusts 3.8 mph6.1 kmh 10.7 mph17.2 kmh - -
Humidity 91% 92% 86% 89%
Pressure 30.21 in1023.0 mb 30.39 in1029.1 mb 30.21 in1023.0 mb -
Precipitation - 0.66 in16.8 mm - -
Hour Temp Dew Point Humidity Winds Wind Gusts Pressure Precip Precip Rate Daily Precip Total
06:42 AM 48.7°F9.3°C 46.4°F8.0°C 91% 2.7 mph E4.3 kmh E 3.8 mph6.1 kmh 30.21 in1023.0 mb 0.04 in1.0 mm 0.00 in0.0 mm 0.66 in16.8 mm
06:39 AM 48.7°F9.3°C 46.4°F8.0°C 91% 1.6 mph NE2.6 kmh NE 3.1 mph5.0 kmh 30.24 in1024.0 mb 0.04 in1.0 mm 0.00 in0.0 mm 0.66 in16.8 mm
06:36 AM 48.7°F9.3°C 46.4°F8.0°C 91% 2.0 mph NE3.2 kmh NE 3.1 mph5.0 kmh 30.24 in1024.0 mb 0.04 in1.0 mm 0.80 in20.3 mm 0.66 in16.8 mm
06:33 AM 48.7°F9.3°C 46.4°F8.0°C 91% Calm Calm 2.9 mph4.7 kmh 30.24 in1024.0 mb 0.00 in0.0 mm 0.00 in0.0 mm 0.62 in15.7 mm
06:30 AM 48.7°F9.3°C 46.4°F8.0°C 91% 0.9 mph E1.4 kmh E 3.1 mph5.0 kmh 30.24 in1024.0 mb 0.00 in0.0 mm 0.00 in0.0 mm 0.62 in15.7 mm
06:27 AM 48.7°F9.3°C 46.4°F8.0°C 91% 1.3 mph E2.1 kmh E 3.1 mph5.0 kmh 30.24 in1024.0 mb 0.00 in0.0 mm 0.00 in0.0 mm 0.62 in15.7 mm
06:24 AM 48.6°F9.2°C 46.4°F8.0°C 91% 2.2 mph E3.5 kmh E 3.1 mph5.0 kmh 30.24 in1024.0 mb 0.00 in0.0 mm 0.00 in0.0 mm 0.62 in15.7 mm
06:21 AM 48.6°F9.2°C 46.4°F8.0°C 91% Calm Calm 1.6 mph2.6 kmh 30.24 in1024.0 mb 0.00 in0.0 mm 0.00 in0.0 mm 0.62 in15.7 mm
06:18 AM 48.6°F9.2°C 46.4°F8.0°C 91% Calm Calm 2.2 mph3.5 kmh 30.24 in1024.0 mb 0.00 in0.0 mm 0.00 in0.0 mm 0.62 in15.7 mm
06:15 AM 48.6°F9.2°C 46.4°F8.0°C 91% Calm Calm 2.7 mph4.3 kmh 30.24 in1024.0 mb 0.00 in0.0 mm 0.00 in0.0 mm 0.62 in15.7 mm
06:12 AM 48.6°F9.2°C 46.4°F8.0°C 91% 0.9 mph NE1.4 kmh NE 2.7 mph4.3 kmh 30.24 in1024.0 mb 0.00 in0.0 mm 0.00 in0.0 mm 0.62 in15.7 mm
06:09 AM 48.6°F9.2°C 46.4°F8.0°C 91% 1.1 mph NE1.8 kmh NE 3.8 mph6.1 kmh 30.24 in1024.0 mb 0.00 in0.0 mm 0.00 in0.0 mm 0.62 in15.7 mm
06:06 AM 48.6°F9.2°C 46.4°F8.0°C 91% 1.3 mph NE2.1 kmh NE 3.8 mph6.1 kmh 30.24 in1024.0 mb 0.00 in0.0 mm 0.00 in0.0 mm 0.62 in15.7 mm
06:03 AM 48.6°F9.2°C 46.4°F8.0°C 91% 2.5 mph NE4.0 kmh NE 3.8 mph6.1 kmh 30.24 in1024.0 mb 0.00 in0.0 mm 0.00 in0.0 mm 0.62 in15.7 mm
06:00 AM 48.6°F9.2°C 46.4°F8.0°C 91% 2.5 mph NE4.0 kmh NE 3.8 mph6.1 kmh 30.24 in1024.0 mb 0.00 in0.0 mm 0.00 in0.0 mm 0.62 in15.7 mm
05:57 AM 48.6°F9.2°C 46.4°F8.0°C 91% 2.2 mph NE3.5 kmh NE 5.4 mph8.7 kmh 30.24 in1024.0 mb 0.00 in0.0 mm 0.00 in0.0 mm 0.62 in15.7 mm
05:54 AM 48.6°F9.2°C 46.4°F8.0°C 91% 1.6 mph NNE2.6 kmh NNE 5.4 mph8.7 kmh 30.24 in1024.0 mb 0.00 in0.0 mm 0.00 in0.0 mm 0.62 in15.7 mm
05:51 AM 48.4°F9.1°C 46.4°F8.0°C 91% 2.5 mph N4.0 kmh N 5.4 mph8.7 kmh 30.24 in1024.0 mb 0.00 in0.0 mm 0.00 in0.0 mm 0.62 in15.7 mm
05:48 AM 48.4°F9.1°C 46.4°F8.0°C 91% 2.2 mph NNE3.5 kmh NNE 4.9 mph7.9 kmh 30.24 in1024.0 mb 0.00 in0.0 mm 0.00 in0.0 mm 0.62 in15.7 mm
05:45 AM 48.4°F9.1°C 46.4°F8.0°C 91% Calm Calm 3.4 mph5.5 kmh 30.24 in1024.0 mb 0.00 in0.0 mm 0.00 in0.0 mm 0.62 in15.7 mm
05:42 AM 48.4°F9.1°C 46.4°F8.0°C 91% 2.0 mph E3.2 kmh E 3.4 mph5.5 kmh 30.24 in1024.0 mb 0.00 in0.0 mm 0.00 in0.0 mm 0.62 in15.7 mm
05:39 AM 48.4°F9.1°C 46.4°F8.0°C 91% 3.1 mph E5.0 kmh E 3.4 mph5.5 kmh 30.24 in1024.0 mb 0.00 in0.0 mm 0.00 in0.0 mm 0.62 in15.7 mm
05:36 AM 48.4°F9.1°C 46.4°F8.0°C 91% 2.0 mph E3.2 kmh E 3.4 mph5.5 kmh 30.24 in1024.0 mb 0.00 in0.0 mm 0.00 in0.0 mm 0.62 in15.7 mm
05:33 AM 48.4°F9.1°C 46.4°F8.0°C 91% 2.0 mph ENE3.2 kmh ENE 3.6 mph5.8 kmh 30.24 in1024.0 mb 0.00 in0.0 mm 0.00 in0.0 mm 0.62 in15.7 mm
05:30 AM 48.4°F9.1°C 46.4°F8.0°C 91% Calm Calm 3.6 mph5.8 kmh 30.24 in1024.0 mb 0.00 in0.0 mm 0.00 in0.0 mm 0.62 in15.7 mm
05:27 AM 48.2°F9.0°C 46.4°F8.0°C 91% Calm Calm 3.6 mph5.8 kmh 30.24 in1024.0 mb 0.00 in0.0 mm 0.00 in0.0 mm 0.62 in15.7 mm
05:24 AM 48.2°F9.0°C 46.4°F8.0°C 91% 2.2 mph ESE3.5 kmh ESE 3.6 mph5.8 kmh 30.27 in1025.1 mb 0.00 in0.0 mm 0.00 in0.0 mm 0.62 in15.7 mm
05:21 AM 48.2°F9.0°C 46.4°F8.0°C 90% 1.3 mph ESE2.1 kmh ESE 3.6 mph5.8 kmh 30.27 in1025.1 mb 0.00 in0.0 mm 0.00 in0.0 mm 0.62 in15.7 mm
05:18 AM 48.2°F9.0°C 46.4°F8.0°C 91% 2.0 mph E3.2 kmh E 3.6 mph5.8 kmh 30.27 in1025.1 mb 0.00 in0.0 mm 0.00 in0.0 mm 0.62 in15.7 mm
05:15 AM 48.2°F9.0°C 46.4°F8.0°C 91% Calm Calm 3.6 mph5.8 kmh 30.27 in1025.1 mb 0.00 in0.0 mm 0.00 in0.0 mm 0.62 in15.7 mm
05:12 AM 48.2°F9.0°C 46.4°F8.0°C 91% 3.1 mph E5.0 kmh E 3.6 mph5.8 kmh 30.27 in1025.1 mb 0.00 in0.0 mm 0.00 in0.0 mm 0.62 in15.7 mm
05:09 AM 48.2°F9.0°C 46.4°F8.0°C 90% 2.2 mph E3.5 kmh E 3.4 mph5.5 kmh 30.24 in1024.0 mb 0.04 in1.0 mm 0.00 in0.0 mm 0.62 in15.7 mm
05:06 AM 48.2°F9.0°C 46.4°F8.0°C 90% 2.0 mph E3.2 kmh E 7.4 mph11.9 kmh 30.24 in1024.0 mb 0.04 in1.0 mm 0.00 in0.0 mm 0.62 in15.7 mm
05:03 AM 48.2°F9.0°C 46.4°F8.0°C 90% 1.1 mph E1.8 kmh E 7.4 mph11.9 kmh 30.24 in1024.0 mb 0.04 in1.0 mm 0.00 in0.0 mm 0.62 in15.7 mm
05:00 AM 48.2°F9.0°C 46.4°F8.0°C 91% 2.2 mph E3.5 kmh E 7.4 mph11.9 kmh 30.24 in1024.0 mb 0.04 in1.0 mm 0.00 in0.0 mm 0.62 in15.7 mm
04:57 AM 48.2°F9.0°C 46.4°F8.0°C 91% 5.4 mph E8.7 kmh E 7.4 mph11.9 kmh 30.24 in1024.0 mb 0.04 in1.0 mm 0.00 in0.0 mm 0.62 in15.7 mm
04:54 AM 48.0°F8.9°C 46.4°F8.0°C 91% 1.3 mph E2.1 kmh E 5.4 mph8.7 kmh 30.27 in1025.1 mb 0.04 in1.0 mm 0.00 in0.0 mm 0.62 in15.7 mm
04:51 AM 48.0°F8.9°C 46.4°F8.0°C 91% Calm Calm 5.4 mph8.7 kmh 30.27 in1025.1 mb 0.04 in1.0 mm 0.00 in0.0 mm 0.62 in15.7 mm
04:48 AM 48.0°F8.9°C 46.4°F8.0°C 91% 4.5 mph ESE7.2 kmh ESE 6.0 mph9.7 kmh 30.27 in1025.1 mb 0.04 in1.0 mm 0.00 in0.0 mm 0.62 in15.7 mm
04:45 AM 48.0°F8.9°C 46.4°F8.0°C 91% 3.1 mph E5.0 kmh E 6.0 mph9.7 kmh 30.27 in1025.1 mb 0.04 in1.0 mm 0.00 in0.0 mm 0.62 in15.7 mm
04:42 AM 48.0°F8.9°C 46.4°F8.0°C 91% 3.4 mph ESE5.5 kmh ESE 6.0 mph9.7 kmh 30.27 in1025.1 mb 0.04 in1.0 mm 0.00 in0.0 mm 0.62 in15.7 mm
04:39 AM 48.0°F8.9°C 46.4°F8.0°C 91% 4.0 mph ESE6.4 kmh ESE 6.0 mph9.7 kmh 30.30 in1026.1 mb 0.04 in1.0 mm 0.00 in0.0 mm 0.62 in15.7 mm
04:36 AM 48.0°F8.9°C 46.4°F8.0°C 91% 3.8 mph SE6.1 kmh SE 4.9 mph7.9 kmh 30.30 in1026.1 mb 0.04 in1.0 mm 0.00 in0.0 mm 0.62 in15.7 mm
04:33 AM 48.0°F8.9°C 46.4°F8.0°C 91% 1.3 mph SE2.1 kmh SE 4.9 mph7.9 kmh 30.30 in1026.1 mb 0.04 in1.0 mm 0.00 in0.0 mm 0.62 in15.7 mm
04:30 AM 48.0°F8.9°C 46.4°F8.0°C 92% 1.6 mph SSE2.6 kmh SSE 4.9 mph7.9 kmh 30.30 in1026.1 mb 0.04 in1.0 mm 0.00 in0.0 mm 0.62 in15.7 mm
04:27 AM 48.0°F8.9°C 46.4°F8.0°C 91% 3.1 mph S5.0 kmh S 4.9 mph7.9 kmh 30.30 in1026.1 mb 0.09 in2.3 mm 0.00 in0.0 mm 0.62 in15.7 mm
04:24 AM 48.0°F8.9°C 46.4°F8.0°C 91% 2.9 mph S4.7 kmh S 8.7 mph14.0 kmh 30.27 in1025.1 mb 0.09 in2.3 mm 0.00 in0.0 mm 0.62 in15.7 mm
04:21 AM 48.0°F8.9°C 46.4°F8.0°C 92% Calm Calm 10.3 mph16.6 kmh 30.27 in1025.1 mb 0.09 in2.3 mm 0.00 in0.0 mm 0.62 in15.7 mm
04:18 AM 48.0°F8.9°C 46.4°F8.0°C 92% 1.6 mph SE2.6 kmh SE 10.3 mph16.6 kmh 30.27 in1025.1 mb 0.09 in2.3 mm 0.00 in0.0 mm 0.62 in15.7 mm
04:15 AM 47.8°F8.8°C 46.4°F8.0°C 92% 4.0 mph SE6.4 kmh SE 10.3 mph16.6 kmh 30.27 in1025.1 mb 0.09 in2.3 mm 0.00 in0.0 mm 0.62 in15.7 mm
04:12 AM 47.8°F8.8°C 46.4°F8.0°C 92% 7.6 mph SE12.2 kmh SE 10.3 mph16.6 kmh 30.27 in1025.1 mb 0.09 in2.3 mm 0.80 in20.3 mm 0.62 in15.7 mm
04:09 AM 47.8°F8.8°C 46.4°F8.0°C 92% 4.3 mph SE6.9 kmh SE 10.3 mph16.6 kmh 30.27 in1025.1 mb 0.05 in1.3 mm 0.00 in0.0 mm 0.58 in14.7 mm
04:06 AM 47.8°F8.8°C 46.4°F8.0°C 92% 2.7 mph SE4.3 kmh SE 8.7 mph14.0 kmh 30.27 in1025.1 mb 0.05 in1.3 mm 0.00 in0.0 mm 0.58 in14.7 mm
04:03 AM 47.8°F8.8°C 46.4°F8.0°C 92% 4.7 mph SE7.6 kmh SE 8.7 mph14.0 kmh 30.27 in1025.1 mb 0.05 in1.3 mm 0.00 in0.0 mm 0.58 in14.7 mm
04:00 AM 47.8°F8.8°C 46.4°F8.0°C 92% 3.1 mph SE5.0 kmh SE 6.3 mph10.1 kmh 30.27 in1025.1 mb 0.05 in1.3 mm 0.00 in0.0 mm 0.58 in14.7 mm
03:57 AM 47.8°F8.8°C 46.4°F8.0°C 92% 3.1 mph SE5.0 kmh SE 6.3 mph10.1 kmh 30.27 in1025.1 mb 0.05 in1.3 mm 0.00 in0.0 mm 0.58 in14.7 mm
03:54 AM 47.7°F8.7°C 46.4°F8.0°C 92% 3.8 mph SE6.1 kmh SE 8.5 mph13.7 kmh 30.27 in1025.1 mb 0.09 in2.3 mm 0.00 in0.0 mm 0.58 in14.7 mm
03:51 AM 47.7°F8.7°C 46.4°F8.0°C 92% 4.3 mph SE6.9 kmh SE 8.7 mph14.0 kmh 30.27 in1025.1 mb 0.09 in2.3 mm 0.00 in0.0 mm 0.58 in14.7 mm
03:48 AM 47.7°F8.7°C 46.4°F8.0°C 92% 3.6 mph ESE5.8 kmh ESE 10.7 mph17.2 kmh 30.27 in1025.1 mb 0.09 in2.3 mm 0.00 in0.0 mm 0.58 in14.7 mm
03:45 AM 47.7°F8.7°C 46.4°F8.0°C 92% 4.5 mph ESE7.2 kmh ESE 10.7 mph17.2 kmh 30.27 in1025.1 mb 0.09 in2.3 mm 0.00 in0.0 mm 0.58 in14.7 mm
03:42 AM 47.5°F8.6°C 46.4°F8.0°C 92% 6.9 mph ESE11.1 kmh ESE 10.7 mph17.2 kmh 30.27 in1025.1 mb 0.09 in2.3 mm 0.00 in0.0 mm 0.58 in14.7 mm
03:39 AM 47.5°F8.6°C 46.4°F8.0°C 91% 7.2 mph ESE11.6 kmh ESE 8.1 mph13.0 kmh 30.30 in1026.1 mb 0.09 in2.3 mm 0.00 in0.0 mm 0.58 in14.7 mm
03:36 AM 47.3°F8.5°C 46.4°F8.0°C 91% 4.5 mph SE7.2 kmh SE 8.1 mph13.0 kmh 30.30 in1026.1 mb 0.13 in3.3 mm 0.00 in0.0 mm 0.58 in14.7 mm
03:33 AM 47.3°F8.5°C 46.4°F8.0°C 91% 3.6 mph SE5.8 kmh SE 8.1 mph13.0 kmh 30.30 in1026.1 mb 0.13 in3.3 mm 0.00 in0.0 mm 0.58 in14.7 mm
03:30 AM 47.1°F8.4°C 44.6°F7.0°C 90% 4.7 mph ESE7.6 kmh ESE 8.1 mph13.0 kmh 30.30 in1026.1 mb 0.13 in3.3 mm 1.00 in25.4 mm 0.58 in14.7 mm
03:27 AM 47.1°F8.4°C 44.6°F7.0°C 90% 4.5 mph E7.2 kmh E 6.0 mph9.7 kmh 30.30 in1026.1 mb 0.08 in2.0 mm 0.00 in0.0 mm 0.53 in13.5 mm
03:24 AM 46.9°F8.3°C 44.6°F7.0°C 89% 4.3 mph E6.9 kmh E 6.0 mph9.7 kmh 30.30 in1026.1 mb 0.08 in2.0 mm 0.00 in0.0 mm 0.53 in13.5 mm
03:21 AM 46.9°F8.3°C 44.6°F7.0°C 89% 4.5 mph E7.2 kmh E 6.0 mph9.7 kmh 30.30 in1026.1 mb 0.08 in2.0 mm 0.00 in0.0 mm 0.53 in13.5 mm
03:18 AM 46.9°F8.3°C 44.6°F7.0°C 89% 2.7 mph E4.3 kmh E 6.3 mph10.1 kmh 30.30 in1026.1 mb 0.12 in3.0 mm 0.00 in0.0 mm 0.53 in13.5 mm
03:15 AM 46.9°F8.3°C 44.6°F7.0°C 89% Calm Calm 6.3 mph10.1 kmh 30.30 in1026.1 mb 0.12 in3.0 mm 0.00 in0.0 mm 0.53 in13.5 mm
03:12 AM 46.9°F8.3°C 44.6°F7.0°C 89% 4.7 mph E7.6 kmh E 6.3 mph10.1 kmh 30.30 in1026.1 mb 0.12 in3.0 mm 0.00 in0.0 mm 0.53 in13.5 mm
03:09 AM 46.9°F8.3°C 44.6°F7.0°C 89% 2.9 mph E4.7 kmh E 6.0 mph9.7 kmh 30.33 in1027.1 mb 0.12 in3.0 mm 0.00 in0.0 mm 0.53 in13.5 mm
03:06 AM 46.8°F8.2°C 42.8°F6.0°C 88% 3.1 mph ENE5.0 kmh ENE 6.0 mph9.7 kmh 30.33 in1027.1 mb 0.12 in3.0 mm 0.00 in0.0 mm 0.53 in13.5 mm
03:03 AM 46.8°F8.2°C 42.8°F6.0°C 88% 2.5 mph ENE4.0 kmh ENE 5.8 mph9.3 kmh 30.33 in1027.1 mb 0.12 in3.0 mm 0.00 in0.0 mm 0.53 in13.5 mm
03:00 AM 46.8°F8.2°C 42.8°F6.0°C 88% 2.7 mph ENE4.3 kmh ENE 5.8 mph9.3 kmh 30.33 in1027.1 mb 0.12 in3.0 mm 0.00 in0.0 mm 0.53 in13.5 mm
02:57 AM 46.8°F8.2°C 42.8°F6.0°C 88% 2.2 mph E3.5 kmh E 4.0 mph6.4 kmh 30.33 in1027.1 mb 0.12 in3.0 mm 0.00 in0.0 mm 0.49 in12.4 mm
02:54 AM 46.8°F8.2°C 42.8°F6.0°C 88% 2.2 mph E3.5 kmh E 4.0 mph6.4 kmh 30.33 in1027.1 mb 0.12 in3.0 mm 0.00 in0.0 mm 0.49 in12.4 mm
02:51 AM 46.8°F8.2°C 42.8°F6.0°C 88% Calm Calm 3.8 mph6.1 kmh 30.33 in1027.1 mb 0.12 in3.0 mm 0.00 in0.0 mm 0.49 in12.4 mm
02:48 AM 46.8°F8.2°C 42.8°F6.0°C 88% 1.6 mph E2.6 kmh E 3.8 mph6.1 kmh 30.33 in1027.1 mb 0.12 in3.0 mm 0.00 in0.0 mm 0.49 in12.4 mm
02:45 AM 46.9°F8.3°C 44.6°F7.0°C 88% 1.6 mph E2.6 kmh E 3.8 mph6.1 kmh 30.33 in1027.1 mb 0.12 in3.0 mm 0.00 in0.0 mm 0.49 in12.4 mm
02:42 AM 46.9°F8.3°C 44.6°F7.0°C 88% 1.3 mph SE2.1 kmh SE 1.6 mph2.6 kmh 30.33 in1027.1 mb 0.16 in4.1 mm 0.00 in0.0 mm 0.49 in12.4 mm
02:39 AM 46.9°F8.3°C 44.6°F7.0°C 88% Calm Calm 1.1 mph1.8 kmh 30.33 in1027.1 mb 0.16 in4.1 mm 0.80 in20.3 mm 0.49 in12.4 mm
02:36 AM 46.9°F8.3°C 44.6°F7.0°C 88% Calm Calm 2.9 mph4.7 kmh 30.33 in1027.1 mb 0.12 in3.0 mm 0.00 in0.0 mm 0.45 in11.4 mm
02:33 AM 46.9°F8.3°C 44.6°F7.0°C 88% Calm Calm 6.5 mph10.5 kmh 30.33 in1027.1 mb 0.12 in3.0 mm 0.00 in0.0 mm 0.45 in11.4 mm
02:30 AM 46.9°F8.3°C 44.6°F7.0°C 89% Calm Calm 6.5 mph10.5 kmh 30.33 in1027.1 mb 0.16 in4.1 mm 0.00 in0.0 mm 0.45 in11.4 mm
02:27 AM 46.9°F8.3°C 44.6°F7.0°C 89% 0.9 mph ENE1.4 kmh ENE 6.5 mph10.5 kmh 30.33 in1027.1 mb 0.16 in4.1 mm 0.00 in0.0 mm 0.45 in11.4 mm
02:24 AM 46.8°F8.2°C 42.8°F6.0°C 88% 2.2 mph NE3.5 kmh NE 5.4 mph8.7 kmh 30.33 in1027.1 mb 0.16 in4.1 mm 0.00 in0.0 mm 0.45 in11.4 mm
02:21 AM 46.8°F8.2°C 42.8°F6.0°C 88% 3.6 mph NE5.8 kmh NE 6.5 mph10.5 kmh 30.33 in1027.1 mb 0.17 in4.3 mm 0.00 in0.0 mm 0.41 in10.4 mm
02:18 AM 46.8°F8.2°C 42.8°F6.0°C 88% 3.4 mph NE5.5 kmh NE 6.5 mph10.5 kmh 30.33 in1027.1 mb 0.17 in4.3 mm 0.00 in0.0 mm 0.41 in10.4 mm
02:15 AM 46.8°F8.2°C 42.8°F6.0°C 88% 2.7 mph NE4.3 kmh NE 6.5 mph10.5 kmh 30.33 in1027.1 mb 0.17 in4.3 mm 0.00 in0.0 mm 0.41 in10.4 mm
02:12 AM 46.8°F8.2°C 42.8°F6.0°C 88% 2.9 mph ENE4.7 kmh ENE 6.5 mph10.5 kmh 30.33 in1027.1 mb 0.17 in4.3 mm 0.00 in0.0 mm 0.41 in10.4 mm
02:09 AM 46.6°F8.1°C 42.8°F6.0°C 87% 3.1 mph ENE5.0 kmh ENE 4.7 mph7.6 kmh 30.33 in1027.1 mb 0.21 in5.3 mm 0.00 in0.0 mm 0.41 in10.4 mm
02:06 AM 46.6°F8.1°C 42.8°F6.0°C 87% 2.5 mph ENE4.0 kmh ENE 4.7 mph7.6 kmh 30.33 in1027.1 mb 0.21 in5.3 mm 0.00 in0.0 mm 0.41 in10.4 mm
02:03 AM 46.6°F8.1°C 42.8°F6.0°C 87% 1.3 mph E2.1 kmh E 5.4 mph8.7 kmh 30.33 in1027.1 mb 0.21 in5.3 mm 0.00 in0.0 mm 0.41 in10.4 mm
02:00 AM 46.6°F8.1°C 42.8°F6.0°C 87% 2.0 mph ESE3.2 kmh ESE 5.4 mph8.7 kmh 30.33 in1027.1 mb 0.21 in5.3 mm 0.00 in0.0 mm 0.37 in9.4 mm
01:57 AM 46.6°F8.1°C 42.8°F6.0°C 87% 2.2 mph SE3.5 kmh SE 5.4 mph8.7 kmh 30.33 in1027.1 mb 0.21 in5.3 mm 0.00 in0.0 mm 0.37 in9.4 mm
01:54 AM 46.6°F8.1°C 42.8°F6.0°C 88% 1.1 mph S1.8 kmh S 4.3 mph6.9 kmh 30.33 in1027.1 mb 0.21 in5.3 mm 0.00 in0.0 mm 0.37 in9.4 mm
01:51 AM 46.6°F8.1°C 42.8°F6.0°C 88% 3.8 mph SSE6.1 kmh SSE 4.3 mph6.9 kmh 30.33 in1027.1 mb 0.21 in5.3 mm 0.00 in0.0 mm 0.37 in9.4 mm
01:48 AM 46.8°F8.2°C 42.8°F6.0°C 88% 2.5 mph SE4.0 kmh SE 5.4 mph8.7 kmh 30.33 in1027.1 mb 0.21 in5.3 mm 0.00 in0.0 mm 0.37 in9.4 mm
01:45 AM 46.8°F8.2°C 42.8°F6.0°C 88% 2.7 mph E4.3 kmh E 6.5 mph10.5 kmh 30.33 in1027.1 mb 0.21 in5.3 mm 0.00 in0.0 mm 0.33 in8.4 mm
01:42 AM 46.6°F8.1°C 42.8°F6.0°C 88% 3.1 mph ENE5.0 kmh ENE 6.5 mph10.5 kmh 30.33 in1027.1 mb 0.21 in5.3 mm 0.00 in0.0 mm 0.33 in8.4 mm
01:39 AM 46.6°F8.1°C 42.8°F6.0°C 88% 3.1 mph NE5.0 kmh NE 6.5 mph10.5 kmh 30.39 in1029.1 mb 0.21 in5.3 mm 0.00 in0.0 mm 0.33 in8.4 mm
01:36 AM 46.6°F8.1°C 42.8°F6.0°C 88% 4.0 mph NE6.4 kmh NE 6.3 mph10.1 kmh 30.39 in1029.1 mb 0.21 in5.3 mm 0.00 in0.0 mm 0.33 in8.4 mm
01:33 AM 46.6°F8.1°C 42.8°F6.0°C 87% 3.6 mph NE5.8 kmh NE 5.6 mph9.0 kmh 30.39 in1029.1 mb 0.21 in5.3 mm 0.80 in20.3 mm 0.33 in8.4 mm
01:30 AM 46.6°F8.1°C 42.8°F6.0°C 87% 3.4 mph NNE5.5 kmh NNE 5.4 mph8.7 kmh 30.39 in1029.1 mb 0.17 in4.3 mm 0.00 in0.0 mm 0.29 in7.4 mm
01:27 AM 46.6°F8.1°C 42.8°F6.0°C 87% 1.6 mph NNE2.6 kmh NNE 4.3 mph6.9 kmh 30.39 in1029.1 mb 0.17 in4.3 mm 0.00 in0.0 mm 0.29 in7.4 mm
01:24 AM 46.6°F8.1°C 42.8°F6.0°C 87% 1.6 mph N2.6 kmh N 4.3 mph6.9 kmh 30.39 in1029.1 mb 0.17 in4.3 mm 0.20 in5.1 mm 0.29 in7.4 mm
01:21 AM 46.6°F8.1°C 42.8°F6.0°C 87% 2.0 mph N3.2 kmh N 4.3 mph6.9 kmh 30.39 in1029.1 mb 0.16 in4.1 mm 0.00 in0.0 mm 0.24 in6.1 mm
01:18 AM 46.6°F8.1°C 42.8°F6.0°C 87% 2.0 mph N3.2 kmh N 4.3 mph6.9 kmh 30.39 in1029.1 mb 0.16 in4.1 mm 0.00 in0.0 mm 0.24 in6.1 mm
01:15 AM 46.6°F8.1°C 42.8°F6.0°C 87% 2.2 mph N3.5 kmh N 4.3 mph6.9 kmh 30.39 in1029.1 mb 0.16 in4.1 mm 0.00 in0.0 mm 0.24 in6.1 mm
01:12 AM 46.6°F8.1°C 42.8°F6.0°C 87% 2.5 mph N4.0 kmh N 4.3 mph6.9 kmh 30.39 in1029.1 mb 0.20 in5.1 mm 0.80 in20.3 mm 0.24 in6.1 mm
01:09 AM 46.6°F8.1°C 42.8°F6.0°C 87% 1.3 mph N2.1 kmh N 3.1 mph5.0 kmh 30.39 in1029.1 mb 0.16 in4.1 mm 0.00 in0.0 mm 0.20 in5.1 mm
01:06 AM 46.6°F8.1°C 42.8°F6.0°C 87% 2.5 mph NNE4.0 kmh NNE 2.7 mph4.3 kmh 30.39 in1029.1 mb 0.16 in4.1 mm 0.00 in0.0 mm 0.20 in5.1 mm
01:03 AM 46.6°F8.1°C 42.8°F6.0°C 87% Calm Calm 3.4 mph5.5 kmh 30.39 in1029.1 mb 0.20 in5.1 mm 0.80 in20.3 mm 0.20 in5.1 mm
01:00 AM 46.6°F8.1°C 42.8°F6.0°C 87% 2.2 mph NE3.5 kmh NE 3.4 mph5.5 kmh 30.39 in1029.1 mb 0.16 in4.1 mm 0.00 in0.0 mm 0.16 in4.1 mm
12:57 AM 46.8°F8.2°C 42.8°F6.0°C 87% 1.6 mph NE2.6 kmh NE 3.6 mph5.8 kmh 30.39 in1029.1 mb 0.16 in4.1 mm 0.00 in0.0 mm 0.16 in4.1 mm
12:54 AM 46.6°F8.1°C 42.8°F6.0°C 87% 1.1 mph NNE1.8 kmh NNE 3.8 mph6.1 kmh 30.39 in1029.1 mb 0.16 in4.1 mm 0.00 in0.0 mm 0.16 in4.1 mm
12:51 AM 46.6°F8.1°C 42.8°F6.0°C 87% 1.3 mph NNE2.1 kmh NNE 5.6 mph9.0 kmh 30.39 in1029.1 mb 0.16 in4.1 mm 0.00 in0.0 mm 0.16 in4.1 mm
12:48 AM 46.6°F8.1°C 42.8°F6.0°C 87% 2.2 mph N3.5 kmh N 7.2 mph11.6 kmh 30.39 in1029.1 mb 0.20 in5.1 mm 0.80 in20.3 mm 0.16 in4.1 mm
12:45 AM 46.6°F8.1°C 42.8°F6.0°C 87% 2.7 mph N4.3 kmh N 7.2 mph11.6 kmh 30.39 in1029.1 mb 0.16 in4.1 mm 0.00 in0.0 mm 0.12 in3.0 mm
12:42 AM 46.6°F8.1°C 42.8°F6.0°C 87% 4.5 mph N7.2 kmh N 7.2 mph11.6 kmh 30.39 in1029.1 mb 0.16 in4.1 mm 0.00 in0.0 mm 0.12 in3.0 mm
12:39 AM 46.6°F8.1°C 42.8°F6.0°C 87% 4.5 mph N7.2 kmh N 7.2 mph11.6 kmh 30.39 in1029.1 mb 0.16 in4.1 mm 0.00 in0.0 mm 0.12 in3.0 mm
12:36 AM 46.8°F8.2°C 42.8°F6.0°C 87% 4.0 mph N6.4 kmh N 6.5 mph10.5 kmh 30.39 in1029.1 mb 0.16 in4.1 mm 0.00 in0.0 mm 0.12 in3.0 mm
12:33 AM 46.8°F8.2°C 42.8°F6.0°C 87% 4.9 mph N7.9 kmh N 6.3 mph10.1 kmh 30.39 in1029.1 mb 0.16 in4.1 mm 0.00 in0.0 mm 0.12 in3.0 mm
12:30 AM 46.8°F8.2°C 42.8°F6.0°C 87% 5.4 mph N8.7 kmh N 6.3 mph10.1 kmh 30.39 in1029.1 mb 0.16 in4.1 mm 0.00 in0.0 mm 0.12 in3.0 mm
12:27 AM 46.8°F8.2°C 42.8°F6.0°C 87% 4.0 mph N6.4 kmh N 5.6 mph9.0 kmh 30.39 in1029.1 mb 0.21 in5.3 mm 0.80 in20.3 mm 0.12 in3.0 mm
12:24 AM 46.8°F8.2°C 42.8°F6.0°C 87% 3.6 mph N5.8 kmh N 5.4 mph8.7 kmh 30.39 in1029.1 mb 0.17 in4.3 mm 0.00 in0.0 mm 0.08 in2.0 mm
12:21 AM 46.9°F8.3°C 44.6°F7.0°C 87% 3.1 mph N5.0 kmh N 4.0 mph6.4 kmh 30.39 in1029.1 mb 0.17 in4.3 mm 0.00 in0.0 mm 0.08 in2.0 mm
12:18 AM 46.9°F8.3°C 44.6°F7.0°C 87% 2.9 mph N4.7 kmh N 3.4 mph5.5 kmh 30.39 in1029.1 mb 0.17 in4.3 mm 0.00 in0.0 mm 0.08 in2.0 mm
12:15 AM 46.9°F8.3°C 44.6°F7.0°C 87% 1.6 mph NNE2.6 kmh NNE 2.9 mph4.7 kmh 30.39 in1029.1 mb 0.17 in4.3 mm 0.80 in20.3 mm 0.08 in2.0 mm
12:12 AM 46.9°F8.3°C 42.8°F6.0°C 86% 1.3 mph NNE2.1 kmh NNE 2.0 mph3.2 kmh 30.39 in1029.1 mb 0.13 in3.3 mm 0.00 in0.0 mm 0.04 in1.0 mm
12:09 AM 46.9°F8.3°C 42.8°F6.0°C 86% Calm Calm -- 30.39 in1029.1 mb 0.13 in3.3 mm 0.00 in0.0 mm 0.04 in1.0 mm
12:06 AM 46.9°F8.3°C 42.8°F6.0°C 86% Calm Calm -- 30.39 in1029.1 mb 0.13 in3.3 mm 0.80 in20.3 mm 0.04 in1.0 mm
12:03 AM 46.9°F8.3°C 42.8°F6.0°C 86% Calm Calm 1.3 mph2.1 kmh 30.39 in1029.1 mb 0.09 in2.3 mm 0.00 in0.0 mm 0.09 in2.3 mm
12:00 AM 46.9°F8.3°C 42.8°F6.0°C 86% Calm Calm 1.3 mph2.1 kmh 30.39 in1029.1 mb 0.09 in2.3 mm 0.00 in0.0 mm 0.09 in2.3 mm